Pagrindinis puslapis
METAR-TAF:

METAR-TAF

Oro uostai :

Såtenäs, Švedija

platuma: 58-26N, ilguma: 012-42E, Aukštis: 54 m

Dabartinis oras

Ataskaita buvo paskelbta 17 minutes, ne 02:20 UTC
Vėjas 8 kt iš Pietų
Temperatūra 1°C
Drėgmė 93%
Slėgis 1015 hPa
Matomumas 10 km arba daugiau

METAR: ESIB 280220Z AUTO 18008KT 9999 OVC025/// 01/M00 Q1015

Laikas: 03:37 (02:37 UTC)

Prognozė

Ataskaita buvo paskelbta 14 valandos ir 17 minutes, ne 12:20 UTC
Prognozė galioja nuo 27 metu 12 UTC su 27 metu 16 UTC
Vėjas 5 kt iš Pietų/Pietvakarių
Matomumas 10 km arba daugiau
Su prošvaistėmis ne aukštis 1300 ft
Tikimybė 30%
nuo 27 metu 12 UTC su 27 metu 16 UTC
Išsisklaidę debesys ne aukštis 1300 ft

TAF: ESIB 271220Z 2712/2716 20005KT 9999 BKN013 PROB30 2712/2716 SCT013 RMK MIL

Orai ataskaitas ir orų prognozės (METAR, TAF).

turimą stotys yra geltonos ir raudonos taškus žemėlapyje.

Perkelti pele per norėdami pamatyti stoties vardą.

Tada spustelėkite, norėdami matyti oro stebėjimo ir prognozės.

Norėdami pakeisti žemėlapį: spustelėkite ant žalios mygtukų su juodo kryžiaus žemyn,; žalią mygtuką su brūkšneliu, jei norite nutolinti; arba žalių rodyklių gretimoms žemėlapius.


METAR-TAF: